You find our weatherinfo also at:

UK Metoffice

European Weather Network

Weather Underground



Nearby METAR Reports

   
EKEB - Esbjerg, Denmark
Distance from station: NNW 29 km
Opdateret: 17-11-2018 08:20
Klart  
Klart  
   Vind fra: ESE 3.6 m/s
Vind fra: ESE 3.6 m/s
Temperatur: 2°C
Wind Chill: -2°C
Dugpunkt: 2°C
Fugtighed: 100%
Barometer: 1039 hPa
Clouds: Klart
Visibility: 9 km
Cloud details: Klart
EKEB 170720Z AUTO 11007KT 9000NDV NCD 02/02 Q1039
EKSP - Skrydstrup(Dan-A, Denmark
Distance from station: E 35 km
Opdateret: 17-11-2018 08:20
Mostly Cloudy  
Mostly Cloudy  
   Vind fra: ESE 4.1 m/s
Vind fra: ESE 4.1 m/s
Temperatur: 5°C
Wind Chill: 2°C
Dugpunkt: 2°C
Fugtighed: 81%
Barometer: 1039 hPa
Clouds: Mostly Cloudy
Visibility: More than 10 km
Cloud details: Mostly Cloudy 2000 ft
EKSP 170720Z 11008KT 9999 BKN020 05/02 Q1039
EKBI - Billund Airport, Denmark
Distance from station: NNE 56 km
Opdateret: 17-11-2018 08:20
Overskyet  
Overskyet  
   Vind fra: ESE 5.1 m/s
Vind fra: ESE 5.1 m/s
Temperatur: 4°C
Wind Chill: 0°C
Dugpunkt: 3°C
Fugtighed: 93%
Barometer: 1039 hPa
Clouds: Overskyet
Visibility: 10 km
Cloud details: Overskyet 1100 ft
EKBI 170720Z AUTO 11010KT 9999NDV OVC011/// 04/03 Q1039
EKSB - Sonderborg Airpo, Denmark
Distance from station: ESE 76 km
Opdateret: 17-11-2018 07:50
Mostly Cloudy  
Mostly Cloudy  
   Vind fra: East 6.2 m/s
Vind fra: East 6.2 m/s
Temperatur: 6°C
Wind Chill: 2°C
Dugpunkt: 3°C
Fugtighed: 81%
Barometer: 1038 hPa
Clouds: Mostly Cloudy
Visibility: More than 10 km
Cloud details: Mostly Cloudy 2000 ft
EKSB 170650Z 10012KT 9999 BKN020 06/03 Q1038
EKVD - Vamdrup (aut/man), Denmark
Distance from station: ENE 41 km
Opdateret: 17-11-2018 08:20
  
  
   Vind fra: ESE 4.1 m/s
Vind fra: ESE 4.1 m/s
Temperatur: 6°C
Wind Chill: 3°C
Dugpunkt: 3°C
Fugtighed: 81%
Barometer: 1039 hPa
EKVD 170720Z AUTO 11008KT //// ///////// 06/03 Q1039
EDXW - Westerland/Sylt, Germany
Distance from station: SSW 47 km
Opdateret: 17-11-2018 07:50
Klart  
Klart  
   Vind fra: ESE 5.7 m/s
Vind fra: ESE 5.7 m/s
Temperatur: 2°C
Wind Chill: -3°C
Dugpunkt: 1°C
Fugtighed: 93%
Barometer: 1038 hPa
Visibility: More than 10 km
Cloud details: Klart
EDXW 170650Z 11011KT CAVOK 02/01 Q1038

Original script by  Saratoga-weather.org Adapted for the template by  Weerstation Leuven

Equipment we use:

Weatherstation
Davis VP2

Weatherprogram
Meteohub

Weatherserver
RaspberryPI 3 model B

Davis VP2

Meteohub

RaspberryPI 3 model B